sensor_id;sensor_type;location;lat;lon;timestamp;P1;durP1;ratioP1;P2;durP2;ratioP2
56045;SDS011;41913;51.030;3.706;2023-02-28T00:00:22;1.25;;;0.85;;
56045;SDS011;41913;51.030;3.706;2023-02-28T00:02:48;1.25;;;1.15;;
56045;SDS011;41913;51.030;3.706;2023-02-28T00:05:15;1.30;;;1.20;;
56045;SDS011;41913;51.030;3.706;2023-02-28T00:07:43;1.00;;;1.00;;
56045;SDS011;41913;51.030;3.706;2023-02-28T00:10:10;0.85;;;0.85;;
56045;SDS011;41913;51.030;3.706;2023-02-28T00:12:37;0.90;;;0.90;;
56045;SDS011;41913;51.030;3.706;2023-02-28T00:15:07;1.52;;;1.23;;
56045;SDS011;41913;51.030;3.706;2023-02-28T00:17:34;1.00;;;1.00;;
56045;SDS011;41913;51.030;3.706;2023-02-28T00:20:02;1.27;;;1.20;;
56045;SDS011;41913;51.030;3.706;2023-02-28T00:22:37;1.23;;;1.23;;
56045;SDS011;41913;51.030;3.706;2023-02-28T00:25:05;0.80;;;0.80;;
56045;SDS011;41913;51.030;3.706;2023-02-28T00:27:35;1.10;;;1.10;;
56045;SDS011;41913;51.030;3.706;2023-02-28T00:30:01;1.05;;;1.05;;
56045;SDS011;41913;51.030;3.706;2023-02-28T00:32:28;1.10;;;1.00;;
56045;SDS011;41913;51.030;3.706;2023-02-28T00:34:54;0.90;;;0.90;;
56045;SDS011;41913;51.030;3.706;2023-02-28T00:37:20;0.70;;;0.70;;
56045;SDS011;41913;51.030;3.706;2023-02-28T00:39:46;0.90;;;0.90;;
56045;SDS011;41913;51.030;3.706;2023-02-28T00:42:11;1.85;;;1.27;;
56045;SDS011;41913;51.030;3.706;2023-02-28T00:44:37;1.20;;;1.10;;
56045;SDS011;41913;51.030;3.706;2023-02-28T00:47:03;1.05;;;1.05;;
56045;SDS011;41913;51.030;3.706;2023-02-28T00:49:29;0.80;;;0.80;;
56045;SDS011;41913;51.030;3.706;2023-02-28T00:51:54;1.13;;;1.08;;
56045;SDS011;41913;51.030;3.706;2023-02-28T00:54:21;2.05;;;1.10;;
56045;SDS011;41913;51.030;3.706;2023-02-28T00:56:47;1.05;;;1.05;;
56045;SDS011;41913;51.030;3.706;2023-02-28T00:59:14;1.42;;;1.33;;
56045;SDS011;41913;51.030;3.706;2023-02-28T01:01:41;2.90;;;1.02;;
56045;SDS011;41913;51.030;3.706;2023-02-28T01:04:08;1.40;;;1.40;;
56045;SDS011;41913;51.030;3.706;2023-02-28T01:06:35;1.05;;;1.05;;
56045;SDS011;41913;51.030;3.706;2023-02-28T01:09:01;3.97;;;1.23;;
56045;SDS011;41913;51.030;3.706;2023-02-28T01:11:29;1.55;;;1.20;;
56045;SDS011;41913;51.030;3.706;2023-02-28T01:13:55;1.05;;;0.93;;
56045;SDS011;41913;51.030;3.706;2023-02-28T01:16:21;0.80;;;0.80;;
56045;SDS011;41913;51.030;3.706;2023-02-28T01:18:46;0.80;;;0.80;;
56045;SDS011;41913;51.030;3.706;2023-02-28T01:21:13;1.30;;;1.20;;
56045;SDS011;41913;51.030;3.706;2023-02-28T01:23:41;1.35;;;1.25;;
56045;SDS011;41913;51.030;3.706;2023-02-28T01:26:08;1.27;;;1.27;;
56045;SDS011;41913;51.030;3.706;2023-02-28T01:28:38;2.78;;;1.40;;
56045;SDS011;41913;51.030;3.706;2023-02-28T01:31:04;1.20;;;1.10;;
56045;SDS011;41913;51.030;3.706;2023-02-28T01:33:30;1.15;;;1.10;;
56045;SDS011;41913;51.030;3.706;2023-02-28T01:36:00;0.90;;;0.90;;
56045;SDS011;41913;51.030;3.706;2023-02-28T01:38:27;1.58;;;1.50;;
56045;SDS011;41913;51.030;3.706;2023-02-28T01:40:53;1.73;;;0.90;;
56045;SDS011;41913;51.030;3.706;2023-02-28T01:43:23;1.00;;;1.00;;
56045;SDS011;41913;51.030;3.706;2023-02-28T01:45:57;1.10;;;1.10;;
56045;SDS011;41913;51.030;3.706;2023-02-28T01:48:34;1.17;;;1.17;;
56045;SDS011;41913;51.030;3.706;2023-02-28T01:51:08;0.93;;;0.93;;
56045;SDS011;41913;51.030;3.706;2023-02-28T01:53:39;1.13;;;1.02;;
56045;SDS011;41913;51.030;3.706;2023-02-28T01:56:10;1.05;;;1.05;;
56045;SDS011;41913;51.030;3.706;2023-02-28T01:58:38;0.90;;;0.90;;
56045;SDS011;41913;51.030;3.706;2023-02-28T02:01:04;1.38;;;1.20;;
56045;SDS011;41913;51.030;3.706;2023-02-28T02:03:30;1.30;;;1.20;;
56045;SDS011;41913;51.030;3.706;2023-02-28T02:05:56;1.00;;;1.00;;
56045;SDS011;41913;51.030;3.706;2023-02-28T02:08:23;1.25;;;1.25;;
56045;SDS011;41913;51.030;3.706;2023-02-28T02:11:00;1.70;;;1.08;;
56045;SDS011;41913;51.030;3.706;2023-02-28T02:16:43;1.10;;;1.10;;
56045;SDS011;41913;51.030;3.706;2023-02-28T02:36:00;1.13;;;1.13;;
56045;SDS011;41913;51.030;3.706;2023-02-28T02:38:43;1.13;;;1.05;;
56045;SDS011;41913;51.030;3.706;2023-02-28T02:49:15;1.08;;;1.08;;
56045;SDS011;41913;51.030;3.706;2023-02-28T02:51:45;1.08;;;1.08;;
56045;SDS011;41913;51.030;3.706;2023-02-28T02:54:22;1.25;;;1.25;;
56045;SDS011;41913;51.030;3.706;2023-02-28T02:56:53;1.65;;;0.95;;
56045;SDS011;41913;51.030;3.706;2023-02-28T02:59:25;1.20;;;1.20;;
56045;SDS011;41913;51.030;3.706;2023-02-28T03:01:53;2.20;;;1.33;;
56045;SDS011;41913;51.030;3.706;2023-02-28T03:04:23;1.00;;;1.00;;
56045;SDS011;41913;51.030;3.706;2023-02-28T03:06:51;1.27;;;1.17;;
56045;SDS011;41913;51.030;3.706;2023-02-28T03:09:22;0.90;;;0.90;;
56045;SDS011;41913;51.030;3.706;2023-02-28T03:11:49;2.97;;;1.35;;
56045;SDS011;41913;51.030;3.706;2023-02-28T03:17:30;0.93;;;0.93;;
56045;SDS011;41913;51.030;3.706;2023-02-28T03:20:11;1.10;;;1.10;;
56045;SDS011;41913;51.030;3.706;2023-02-28T03:25:17;1.00;;;1.00;;
56045;SDS011;41913;51.030;3.706;2023-02-28T03:28:16;1.65;;;0.95;;
56045;SDS011;41913;51.030;3.706;2023-02-28T03:33:25;0.95;;;0.90;;
56045;SDS011;41913;51.030;3.706;2023-02-28T03:35:59;1.05;;;1.05;;
56045;SDS011;41913;51.030;3.706;2023-02-28T03:38:34;1.65;;;1.55;;
56045;SDS011;41913;51.030;3.706;2023-02-28T03:41:15;1.00;;;1.00;;
56045;SDS011;41913;51.030;3.706;2023-02-28T03:43:48;1.55;;;1.45;;
56045;SDS011;41913;51.030;3.706;2023-02-28T03:46:21;1.10;;;1.10;;
56045;SDS011;41913;51.030;3.706;2023-02-28T03:48:53;2.35;;;0.88;;
56045;SDS011;41913;51.030;3.706;2023-02-28T03:51:26;0.90;;;0.90;;
56045;SDS011;41913;51.030;3.706;2023-02-28T03:53:54;1.00;;;0.95;;
56045;SDS011;41913;51.030;3.706;2023-02-28T03:59:00;1.20;;;1.20;;
56045;SDS011;41913;51.030;3.706;2023-02-28T04:04:00;2.00;;;1.33;;
56045;SDS011;41913;51.030;3.706;2023-02-28T04:06:27;1.10;;;1.00;;
56045;SDS011;41913;51.030;3.706;2023-02-28T04:08:55;1.73;;;1.60;;
56045;SDS011;41913;51.030;3.706;2023-02-28T04:11:23;1.48;;;1.23;;
56045;SDS011;41913;51.030;3.706;2023-02-28T04:13:56;1.10;;;1.10;;
56045;SDS011;41913;51.030;3.706;2023-02-28T04:16:22;0.82;;;0.82;;
56045;SDS011;41913;51.030;3.706;2023-02-28T04:18:49;3.72;;;1.27;;
56045;SDS011;41913;51.030;3.706;2023-02-28T04:21:15;1.00;;;1.00;;
56045;SDS011;41913;51.030;3.706;2023-02-28T04:23:40;0.90;;;0.82;;
56045;SDS011;41913;51.030;3.706;2023-02-28T04:26:06;1.88;;;1.30;;
56045;SDS011;41913;51.030;3.706;2023-02-28T04:28:32;0.90;;;0.90;;
56045;SDS011;41913;51.030;3.706;2023-02-28T04:30:59;0.95;;;0.90;;
56045;SDS011;41913;51.030;3.706;2023-02-28T04:33:26;0.93;;;0.93;;
56045;SDS011;41913;51.030;3.706;2023-02-28T04:36:02;1.20;;;1.20;;
56045;SDS011;41913;51.030;3.706;2023-02-28T04:38:33;1.00;;;1.00;;
56045;SDS011;41913;51.030;3.706;2023-02-28T04:41:01;1.20;;;1.20;;
56045;SDS011;41913;51.030;3.706;2023-02-28T04:43:27;1.50;;;1.40;;
56045;SDS011;41913;51.030;3.706;2023-02-28T04:45:54;1.20;;;1.08;;
56045;SDS011;41913;51.030;3.706;2023-02-28T04:48:22;1.23;;;1.00;;
56045;SDS011;41913;51.030;3.706;2023-02-28T04:50:52;1.35;;;1.25;;
56045;SDS011;41913;51.030;3.706;2023-02-28T04:53:18;1.10;;;1.10;;
56045;SDS011;41913;51.030;3.706;2023-02-28T04:55:45;1.33;;;1.23;;
56045;SDS011;41913;51.030;3.706;2023-02-28T04:58:11;1.85;;;1.02;;
56045;SDS011;41913;51.030;3.706;2023-02-28T05:00:41;1.65;;;1.55;;
56045;SDS011;41913;51.030;3.706;2023-02-28T05:03:06;1.02;;;1.02;;
56045;SDS011;41913;51.030;3.706;2023-02-28T05:05:32;1.27;;;1.13;;
56045;SDS011;41913;51.030;3.706;2023-02-28T05:07:58;1.40;;;1.40;;
56045;SDS011;41913;51.030;3.706;2023-02-28T05:10:25;1.23;;;1.05;;
56045;SDS011;41913;51.030;3.706;2023-02-28T05:12:52;1.20;;;1.17;;
56045;SDS011;41913;51.030;3.706;2023-02-28T05:15:17;1.25;;;1.25;;
56045;SDS011;41913;51.030;3.706;2023-02-28T05:17:44;0.82;;;0.82;;
56045;SDS011;41913;51.030;3.706;2023-02-28T05:20:11;1.23;;;1.23;;
56045;SDS011;41913;51.030;3.706;2023-02-28T05:22:39;1.00;;;1.00;;
56045;SDS011;41913;51.030;3.706;2023-02-28T05:25:06;1.20;;;1.20;;
56045;SDS011;41913;51.030;3.706;2023-02-28T05:27:36;1.20;;;1.10;;
56045;SDS011;41913;51.030;3.706;2023-02-28T05:30:02;1.27;;;1.27;;
56045;SDS011;41913;51.030;3.706;2023-02-28T05:32:29;1.33;;;1.33;;
56045;SDS011;41913;51.030;3.706;2023-02-28T05:34:55;1.00;;;1.00;;
56045;SDS011;41913;51.030;3.706;2023-02-28T05:37:20;1.00;;;1.00;;
56045;SDS011;41913;51.030;3.706;2023-02-28T05:39:46;0.98;;;0.98;;
56045;SDS011;41913;51.030;3.706;2023-02-28T05:42:12;1.27;;;1.00;;
56045;SDS011;41913;51.030;3.706;2023-02-28T05:44:37;1.05;;;1.05;;
56045;SDS011;41913;51.030;3.706;2023-02-28T05:47:03;1.25;;;1.20;;
56045;SDS011;41913;51.030;3.706;2023-02-28T05:49:29;1.67;;;1.58;;
56045;SDS011;41913;51.030;3.706;2023-02-28T05:51:54;1.55;;;1.45;;
56045;SDS011;41913;51.030;3.706;2023-02-28T05:54:20;1.42;;;1.30;;
56045;SDS011;41913;51.030;3.706;2023-02-28T05:56:46;0.90;;;0.90;;
56045;SDS011;41913;51.030;3.706;2023-02-28T05:59:12;1.92;;;1.83;;
56045;SDS011;41913;51.030;3.706;2023-02-28T06:01:39;1.33;;;1.33;;
56045;SDS011;41913;51.030;3.706;2023-02-28T06:04:08;1.80;;;1.17;;
56045;SDS011;41913;51.030;3.706;2023-02-28T06:06:36;0.73;;;0.73;;
56045;SDS011;41913;51.030;3.706;2023-02-28T06:09:03;1.20;;;1.20;;
56045;SDS011;41913;51.030;3.706;2023-02-28T06:11:29;0.80;;;0.80;;
56045;SDS011;41913;51.030;3.706;2023-02-28T06:13:58;1.08;;;1.08;;
56045;SDS011;41913;51.030;3.706;2023-02-28T06:16:26;0.95;;;0.90;;
56045;SDS011;41913;51.030;3.706;2023-02-28T06:18:53;3.97;;;1.40;;
56045;SDS011;41913;51.030;3.706;2023-02-28T06:21:21;5.68;;;1.50;;
56045;SDS011;41913;51.030;3.706;2023-02-28T06:23:46;5.28;;;2.25;;
56045;SDS011;41913;51.030;3.706;2023-02-28T06:26:12;12.93;;;2.92;;
56045;SDS011;41913;51.030;3.706;2023-02-28T06:28:38;22.27;;;4.13;;
56045;SDS011;41913;51.030;3.706;2023-02-28T06:31:07;5.63;;;2.50;;
56045;SDS011;41913;51.030;3.706;2023-02-28T06:33:34;9.25;;;2.80;;
56045;SDS011;41913;51.030;3.706;2023-02-28T06:36:00;22.60;;;4.43;;
56045;SDS011;41913;51.030;3.706;2023-02-28T06:38:26;12.25;;;2.75;;
56045;SDS011;41913;51.030;3.706;2023-02-28T06:40:54;12.55;;;2.55;;
56045;SDS011;41913;51.030;3.706;2023-02-28T06:43:22;6.70;;;1.92;;
56045;SDS011;41913;51.030;3.706;2023-02-28T06:45:48;5.45;;;1.58;;
56045;SDS011;41913;51.030;3.706;2023-02-28T06:48:14;11.60;;;1.75;;
56045;SDS011;41913;51.030;3.706;2023-02-28T06:50:40;6.03;;;1.90;;
56045;SDS011;41913;51.030;3.706;2023-02-28T06:53:05;5.75;;;1.60;;
56045;SDS011;41913;51.030;3.706;2023-02-28T06:55:31;5.25;;;1.80;;
56045;SDS011;41913;51.030;3.706;2023-02-28T06:57:57;3.45;;;1.92;;
56045;SDS011;41913;51.030;3.706;2023-02-28T07:00:23;5.75;;;1.77;;
56045;SDS011;41913;51.030;3.706;2023-02-28T07:02:50;4.85;;;1.63;;
56045;SDS011;41913;51.030;3.706;2023-02-28T07:05:15;1.95;;;1.65;;
56045;SDS011;41913;51.030;3.706;2023-02-28T07:07:41;4.50;;;1.58;;
56045;SDS011;41913;51.030;3.706;2023-02-28T07:10:10;2.08;;;1.50;;
56045;SDS011;41913;51.030;3.706;2023-02-28T07:12:36;3.40;;;1.00;;
56045;SDS011;41913;51.030;3.706;2023-02-28T07:15:02;1.70;;;1.35;;
56045;SDS011;41913;51.030;3.706;2023-02-28T07:17:29;2.83;;;1.48;;
56045;SDS011;41913;51.030;3.706;2023-02-28T07:19:55;2.80;;;1.05;;
56045;SDS011;41913;51.030;3.706;2023-02-28T07:22:21;3.00;;;1.45;;
56045;SDS011;41913;51.030;3.706;2023-02-28T07:24:47;1.08;;;1.08;;
56045;SDS011;41913;51.030;3.706;2023-02-28T07:27:12;1.30;;;1.20;;
56045;SDS011;41913;51.030;3.706;2023-02-28T07:29:48;2.28;;;1.33;;
56045;SDS011;41913;51.030;3.706;2023-02-28T07:32:17;3.58;;;1.00;;
56045;SDS011;41913;51.030;3.706;2023-02-28T07:34:43;2.20;;;1.25;;
56045;SDS011;41913;51.030;3.706;2023-02-28T07:37:09;3.05;;;1.25;;
56045;SDS011;41913;51.030;3.706;2023-02-28T07:39:35;1.33;;;1.30;;
56045;SDS011;41913;51.030;3.706;2023-02-28T07:42:04;1.15;;;1.00;;
56045;SDS011;41913;51.030;3.706;2023-02-28T07:44:31;0.98;;;0.95;;
56045;SDS011;41913;51.030;3.706;2023-02-28T07:46:57;2.63;;;1.35;;
56045;SDS011;41913;51.030;3.706;2023-02-28T07:49:23;1.45;;;1.10;;
56045;SDS011;41913;51.030;3.706;2023-02-28T07:51:49;1.45;;;1.35;;
56045;SDS011;41913;51.030;3.706;2023-02-28T07:54:14;0.90;;;0.90;;
56045;SDS011;41913;51.030;3.706;2023-02-28T07:56:40;1.50;;;1.40;;
56045;SDS011;41913;51.030;3.706;2023-02-28T07:59:06;2.15;;;1.38;;
56045;SDS011;41913;51.030;3.706;2023-02-28T08:01:31;2.75;;;1.75;;
56045;SDS011;41913;51.030;3.706;2023-02-28T08:03:57;3.17;;;1.30;;
56045;SDS011;41913;51.030;3.706;2023-02-28T08:06:23;1.25;;;1.10;;
56045;SDS011;41913;51.030;3.706;2023-02-28T08:08:50;1.67;;;1.35;;
56045;SDS011;41913;51.030;3.706;2023-02-28T08:11:16;1.02;;;1.02;;
56045;SDS011;41913;51.030;3.706;2023-02-28T08:13:43;0.88;;;0.88;;
56045;SDS011;41913;51.030;3.706;2023-02-28T08:16:10;1.67;;;1.23;;
56045;SDS011;41913;51.030;3.706;2023-02-28T08:18:36;1.20;;;1.20;;
56045;SDS011;41913;51.030;3.706;2023-02-28T08:21:06;1.48;;;0.80;;
56045;SDS011;41913;51.030;3.706;2023-02-28T08:26:00;0.77;;;0.77;;
56045;SDS011;41913;51.030;3.706;2023-02-28T08:28:26;0.93;;;0.93;;
56045;SDS011;41913;51.030;3.706;2023-02-28T08:30:53;2.50;;;1.02;;
56045;SDS011;41913;51.030;3.706;2023-02-28T08:33:19;1.55;;;0.93;;
56045;SDS011;41913;51.030;3.706;2023-02-28T08:35:45;3.55;;;1.13;;
56045;SDS011;41913;51.030;3.706;2023-02-28T08:38:11;1.10;;;1.10;;
56045;SDS011;41913;51.030;3.706;2023-02-28T08:40:36;0.93;;;0.93;;
56045;SDS011;41913;51.030;3.706;2023-02-28T08:43:02;2.38;;;1.10;;
56045;SDS011;41913;51.030;3.706;2023-02-28T08:45:28;1.13;;;1.10;;
56045;SDS011;41913;51.030;3.706;2023-02-28T08:47:54;1.05;;;1.05;;
56045;SDS011;41913;51.030;3.706;2023-02-28T08:50:20;0.90;;;0.82;;
56045;SDS011;41913;51.030;3.706;2023-02-28T08:52:46;0.95;;;0.70;;
56045;SDS011;41913;51.030;3.706;2023-02-28T08:55:12;1.27;;;1.17;;
56045;SDS011;41913;51.030;3.706;2023-02-28T08:57:38;0.80;;;0.80;;
56045;SDS011;41913;51.030;3.706;2023-02-28T09:00:04;1.92;;;0.77;;
56045;SDS011;41913;51.030;3.706;2023-02-28T09:02:32;1.42;;;0.70;;
56045;SDS011;41913;51.030;3.706;2023-02-28T09:04:58;0.75;;;0.75;;
56045;SDS011;41913;51.030;3.706;2023-02-28T09:07:24;1.05;;;0.85;;
56045;SDS011;41913;51.030;3.706;2023-02-28T09:09:50;1.08;;;1.08;;
56045;SDS011;41913;51.030;3.706;2023-02-28T09:12:22;1.90;;;0.93;;
56045;SDS011;41913;51.030;3.706;2023-02-28T09:17:18;1.15;;;0.70;;
56045;SDS011;41913;51.030;3.706;2023-02-28T09:19:44;1.08;;;1.08;;
56045;SDS011;41913;51.030;3.706;2023-02-28T09:22:12;1.08;;;1.08;;
56045;SDS011;41913;51.030;3.706;2023-02-28T09:24:38;0.88;;;0.88;;
56045;SDS011;41913;51.030;3.706;2023-02-28T09:27:03;1.00;;;0.85;;
56045;SDS011;41913;51.030;3.706;2023-02-28T09:29:31;0.82;;;0.82;;
56045;SDS011;41913;51.030;3.706;2023-02-28T09:31:58;2.67;;;0.90;;
56045;SDS011;41913;51.030;3.706;2023-02-28T09:34:24;0.88;;;0.88;;
56045;SDS011;41913;51.030;3.706;2023-02-28T09:36:50;2.47;;;0.90;;
56045;SDS011;41913;51.030;3.706;2023-02-28T09:39:19;0.85;;;0.85;;
56045;SDS011;41913;51.030;3.706;2023-02-28T09:41:47;1.08;;;0.80;;
56045;SDS011;41913;51.030;3.706;2023-02-28T09:44:18;3.00;;;0.80;;
56045;SDS011;41913;51.030;3.706;2023-02-28T09:46:47;0.80;;;0.80;;
56045;SDS011;41913;51.030;3.706;2023-02-28T09:49:18;1.38;;;1.27;;
56045;SDS011;41913;51.030;3.706;2023-02-28T09:51:53;0.95;;;0.90;;
56045;SDS011;41913;51.030;3.706;2023-02-28T09:54:24;0.93;;;0.93;;
56045;SDS011;41913;51.030;3.706;2023-02-28T09:56:53;1.23;;;1.13;;
56045;SDS011;41913;51.030;3.706;2023-02-28T09:59:41;1.95;;;0.77;;
56045;SDS011;41913;51.030;3.706;2023-02-28T10:05:17;1.40;;;0.85;;
56045;SDS011;41913;51.030;3.706;2023-02-28T10:08:10;1.70;;;0.95;;
56045;SDS011;41913;51.030;3.706;2023-02-28T10:10:43;1.02;;;0.90;;
56045;SDS011;41913;51.030;3.706;2023-02-28T10:13:13;1.02;;;1.02;;
56045;SDS011;41913;51.030;3.706;2023-02-28T10:15:58;0.85;;;0.85;;
56045;SDS011;41913;51.030;3.706;2023-02-28T10:18:31;0.77;;;0.75;;
56045;SDS011;41913;51.030;3.706;2023-02-28T10:21:14;2.50;;;0.80;;
56045;SDS011;41913;51.030;3.706;2023-02-28T10:23:48;0.70;;;0.70;;
56045;SDS011;41913;51.030;3.706;2023-02-28T10:26:16;0.88;;;0.77;;
56045;SDS011;41913;51.030;3.706;2023-02-28T10:28:42;0.55;;;0.55;;
56045;SDS011;41913;51.030;3.706;2023-02-28T10:31:14;1.90;;;0.60;;
56045;SDS011;41913;51.030;3.706;2023-02-28T10:33:43;1.20;;;0.88;;
56045;SDS011;41913;51.030;3.706;2023-02-28T10:36:12;1.75;;;0.75;;
56045;SDS011;41913;51.030;3.706;2023-02-28T10:38:41;3.75;;;0.80;;
56045;SDS011;41913;51.030;3.706;2023-02-28T10:43:40;1.02;;;0.75;;
56045;SDS011;41913;51.030;3.706;2023-02-28T10:48:40;0.55;;;0.55;;
56045;SDS011;41913;51.030;3.706;2023-02-28T10:51:11;0.82;;;0.60;;
56045;SDS011;41913;51.030;3.706;2023-02-28T10:53:47;0.63;;;0.55;;
56045;SDS011;41913;51.030;3.706;2023-02-28T10:56:16;0.90;;;0.90;;
56045;SDS011;41913;51.030;3.706;2023-02-28T10:59:00;0.65;;;0.63;;
56045;SDS011;41913;51.030;3.706;2023-02-28T11:01:46;0.65;;;0.65;;
56045;SDS011;41913;51.030;3.706;2023-02-28T11:09:36;1.27;;;0.93;;
56045;SDS011;41913;51.030;3.706;2023-02-28T11:12:04;0.60;;;0.60;;
56045;SDS011;41913;51.030;3.706;2023-02-28T11:14:40;0.70;;;0.70;;
56045;SDS011;41913;51.030;3.706;2023-02-28T11:17:24;0.70;;;0.70;;
56045;SDS011;41913;51.030;3.706;2023-02-28T11:19:55;0.50;;;0.50;;
56045;SDS011;41913;51.030;3.706;2023-02-28T11:22:26;0.60;;;0.60;;
56045;SDS011;41913;51.030;3.706;2023-02-28T11:24:59;0.63;;;0.63;;
56045;SDS011;41913;51.030;3.706;2023-02-28T11:29:59;0.85;;;0.85;;
56045;SDS011;41913;51.030;3.706;2023-02-28T11:32:29;0.77;;;0.77;;
56045;SDS011;41913;51.030;3.706;2023-02-28T11:37:36;2.55;;;0.70;;
56045;SDS011;41913;51.030;3.706;2023-02-28T11:40:13;1.95;;;0.93;;
56045;SDS011;41913;51.030;3.706;2023-02-28T11:48:42;0.60;;;0.60;;
56045;SDS011;41913;51.030;3.706;2023-02-28T11:51:32;1.23;;;0.52;;
56045;SDS011;41913;51.030;3.706;2023-02-28T11:57:18;0.50;;;0.50;;
56045;SDS011;41913;51.030;3.706;2023-02-28T11:59:46;0.75;;;0.75;;
56045;SDS011;41913;51.030;3.706;2023-02-28T12:02:41;0.60;;;0.60;;
56045;SDS011;41913;51.030;3.706;2023-02-28T12:13:48;0.45;;;0.45;;
56045;SDS011;41913;51.030;3.706;2023-02-28T12:25:02;0.55;;;0.55;;
56045;SDS011;41913;51.030;3.706;2023-02-28T12:27:38;0.35;;;0.35;;
56045;SDS011;41913;51.030;3.706;2023-02-28T12:32:49;3.72;;;0.82;;
56045;SDS011;41913;51.030;3.706;2023-02-28T12:35:29;0.50;;;0.50;;
56045;SDS011;41913;51.030;3.706;2023-02-28T12:38:22;0.40;;;0.40;;
56045;SDS011;41913;51.030;3.706;2023-02-28T12:41:01;0.73;;;0.60;;
56045;SDS011;41913;51.030;3.706;2023-02-28T12:43:36;0.80;;;0.80;;
56045;SDS011;41913;51.030;3.706;2023-02-28T12:49:00;0.50;;;0.50;;
56045;SDS011;41913;51.030;3.706;2023-02-28T12:51:33;1.35;;;0.63;;
56045;SDS011;41913;51.030;3.706;2023-02-28T12:54:04;2.45;;;0.68;;
56045;SDS011;41913;51.030;3.706;2023-02-28T12:56:47;0.40;;;0.40;;
56045;SDS011;41913;51.030;3.706;2023-02-28T12:59:23;0.52;;;0.52;;
56045;SDS011;41913;51.030;3.706;2023-02-28T13:08:27;0.50;;;0.50;;
56045;SDS011;41913;51.030;3.706;2023-02-28T13:10:40;1.35;;;0.70;;
56045;SDS011;41913;51.030;3.706;2023-02-28T13:13:11;0.22;;;0.22;;
56045;SDS011;41913;51.030;3.706;2023-02-28T13:15:40;1.10;;;0.60;;
56045;SDS011;41913;51.030;3.706;2023-02-28T13:18:40;2.70;;;0.43;;
56045;SDS011;41913;51.030;3.706;2023-02-28T13:21:21;1.25;;;0.45;;
56045;SDS011;41913;51.030;3.706;2023-02-28T13:34:37;0.50;;;0.30;;
56045;SDS011;41913;51.030;3.706;2023-02-28T13:58:22;0.30;;;0.30;;
56045;SDS011;41913;51.030;3.706;2023-02-28T14:07:05;0.60;;;0.60;;
56045;SDS011;41913;51.030;3.706;2023-02-28T14:09:41;1.35;;;0.30;;
56045;SDS011;41913;51.030;3.706;2023-02-28T14:18:50;0.50;;;0.50;;
56045;SDS011;41913;51.030;3.706;2023-02-28T14:23:35;0.30;;;0.30;;
56045;SDS011;41913;51.030;3.706;2023-02-28T14:26:12;0.20;;;0.20;;
56045;SDS011;41913;51.030;3.706;2023-02-28T14:34:31;5.05;;;0.65;;
56045;SDS011;41913;51.030;3.706;2023-02-28T14:37:19;0.50;;;0.50;;
56045;SDS011;41913;51.030;3.706;2023-02-28T14:39:51;0.50;;;0.50;;
56045;SDS011;41913;51.030;3.706;2023-02-28T14:42:28;0.50;;;0.50;;
56045;SDS011;41913;51.030;3.706;2023-02-28T14:44:58;0.50;;;0.50;;
56045;SDS011;41913;51.030;3.706;2023-02-28T14:47:30;0.40;;;0.40;;
56045;SDS011;41913;51.030;3.706;2023-02-28T14:49:58;0.40;;;0.40;;
56045;SDS011;41913;51.030;3.706;2023-02-28T14:52:29;0.35;;;0.35;;
56045;SDS011;41913;51.030;3.706;2023-02-28T14:54:58;0.38;;;0.38;;
56045;SDS011;41913;51.030;3.706;2023-02-28T15:00:22;0.38;;;0.38;;
56045;SDS011;41913;51.030;3.706;2023-02-28T15:07:44;0.40;;;0.40;;
56045;SDS011;41913;51.030;3.706;2023-02-28T15:12:45;0.47;;;0.47;;
56045;SDS011;41913;51.030;3.706;2023-02-28T15:15:18;0.50;;;0.50;;
56045;SDS011;41913;51.030;3.706;2023-02-28T15:17:46;0.47;;;0.47;;
56045;SDS011;41913;51.030;3.706;2023-02-28T15:20:19;0.40;;;0.40;;
56045;SDS011;41913;51.030;3.706;2023-02-28T15:22:46;0.40;;;0.40;;
56045;SDS011;41913;51.030;3.706;2023-02-28T15:25:17;0.50;;;0.50;;
56045;SDS011;41913;51.030;3.706;2023-02-28T15:27:45;0.77;;;0.50;;
56045;SDS011;41913;51.030;3.706;2023-02-28T15:30:16;0.45;;;0.45;;
56045;SDS011;41913;51.030;3.706;2023-02-28T15:32:44;0.50;;;0.50;;
56045;SDS011;41913;51.030;3.706;2023-02-28T15:37:54;0.50;;;0.50;;
56045;SDS011;41913;51.030;3.706;2023-02-28T15:40:28;0.63;;;0.40;;
56045;SDS011;41913;51.030;3.706;2023-02-28T15:43:17;2.08;;;0.55;;
56045;SDS011;41913;51.030;3.706;2023-02-28T15:45:57;0.73;;;0.73;;
56045;SDS011;41913;51.030;3.706;2023-02-28T15:53:30;0.63;;;0.63;;
56045;SDS011;41913;51.030;3.706;2023-02-28T15:55:59;0.50;;;0.50;;
56045;SDS011;41913;51.030;3.706;2023-02-28T16:01:01;0.52;;;0.52;;
56045;SDS011;41913;51.030;3.706;2023-02-28T16:03:37;0.70;;;0.70;;
56045;SDS011;41913;51.030;3.706;2023-02-28T16:08:53;0.70;;;0.70;;
56045;SDS011;41913;51.030;3.706;2023-02-28T16:11:20;0.70;;;0.70;;
56045;SDS011;41913;51.030;3.706;2023-02-28T16:13:47;0.77;;;0.77;;
56045;SDS011;41913;51.030;3.706;2023-02-28T16:16:20;0.60;;;0.60;;
56045;SDS011;41913;51.030;3.706;2023-02-28T16:18:48;0.70;;;0.70;;
56045;SDS011;41913;51.030;3.706;2023-02-28T16:21:13;0.70;;;0.70;;
56045;SDS011;41913;51.030;3.706;2023-02-28T16:23:39;0.45;;;0.45;;
56045;SDS011;41913;51.030;3.706;2023-02-28T16:26:05;0.50;;;0.50;;
56045;SDS011;41913;51.030;3.706;2023-02-28T16:28:32;0.70;;;0.70;;
56045;SDS011;41913;51.030;3.706;2023-02-28T16:31:01;1.15;;;0.63;;
56045;SDS011;41913;51.030;3.706;2023-02-28T16:33:32;0.50;;;0.50;;
56045;SDS011;41913;51.030;3.706;2023-02-28T16:35:58;0.63;;;0.50;;
56045;SDS011;41913;51.030;3.706;2023-02-28T16:38:24;1.27;;;0.73;;
56045;SDS011;41913;51.030;3.706;2023-02-28T16:40:50;0.47;;;0.47;;
56045;SDS011;41913;51.030;3.706;2023-02-28T16:43:20;1.08;;;1.08;;
56045;SDS011;41913;51.030;3.706;2023-02-28T16:45:51;1.08;;;0.95;;
56045;SDS011;41913;51.030;3.706;2023-02-28T16:48:21;0.73;;;0.73;;
56045;SDS011;41913;51.030;3.706;2023-02-28T16:50:47;0.47;;;0.47;;
56045;SDS011;41913;51.030;3.706;2023-02-28T16:53:12;0.60;;;0.60;;
56045;SDS011;41913;51.030;3.706;2023-02-28T16:55:38;0.65;;;0.65;;
56045;SDS011;41913;51.030;3.706;2023-02-28T16:58:04;2.25;;;0.70;;
56045;SDS011;41913;51.030;3.706;2023-02-28T17:00:31;0.77;;;0.77;;
56045;SDS011;41913;51.030;3.706;2023-02-28T17:02:57;0.50;;;0.50;;
56045;SDS011;41913;51.030;3.706;2023-02-28T17:05:36;0.65;;;0.60;;
56045;SDS011;41913;51.030;3.706;2023-02-28T17:08:04;0.73;;;0.73;;
56045;SDS011;41913;51.030;3.706;2023-02-28T17:10:30;0.50;;;0.50;;
56045;SDS011;41913;51.030;3.706;2023-02-28T17:12:56;0.60;;;0.60;;
56045;SDS011;41913;51.030;3.706;2023-02-28T17:15:21;1.20;;;1.20;;
56045;SDS011;41913;51.030;3.706;2023-02-28T17:17:47;1.45;;;1.35;;
56045;SDS011;41913;51.030;3.706;2023-02-28T17:20:18;1.45;;;1.38;;
56045;SDS011;41913;51.030;3.706;2023-02-28T17:22:49;1.88;;;1.73;;
56045;SDS011;41913;51.030;3.706;2023-02-28T17:25:15;1.20;;;1.10;;
56045;SDS011;41913;51.030;3.706;2023-02-28T17:27:41;1.50;;;1.40;;
56045;SDS011;41913;51.030;3.706;2023-02-28T17:30:21;1.33;;;1.23;;
56045;SDS011;41913;51.030;3.706;2023-02-28T17:32:49;1.30;;;1.30;;
56045;SDS011;41913;51.030;3.706;2023-02-28T17:35:14;1.60;;;1.50;;
56045;SDS011;41913;51.030;3.706;2023-02-28T17:37:41;1.77;;;1.45;;
56045;SDS011;41913;51.030;3.706;2023-02-28T17:40:12;2.38;;;1.25;;
56045;SDS011;41913;51.030;3.706;2023-02-28T17:42:43;1.95;;;1.83;;
56045;SDS011;41913;51.030;3.706;2023-02-28T17:45:09;2.08;;;1.98;;
56045;SDS011;41913;51.030;3.706;2023-02-28T17:47:35;2.50;;;2.30;;
56045;SDS011;41913;51.030;3.706;2023-02-28T17:50:02;1.30;;;1.30;;
56045;SDS011;41913;51.030;3.706;2023-02-28T17:52:28;1.73;;;1.63;;
56045;SDS011;41913;51.030;3.706;2023-02-28T17:54:54;1.20;;;1.20;;
56045;SDS011;41913;51.030;3.706;2023-02-28T17:57:21;1.67;;;1.30;;
56045;SDS011;41913;51.030;3.706;2023-02-28T17:59:46;1.75;;;1.65;;